TimeCDT,TemperatureF,Dew PointF,Humidity,Sea Level PressureIn,VisibilityMPH,Wind Direction,Wind SpeedMPH,Gust SpeedMPH,PrecipitationIn,Events,Conditions,WindDirDegrees,DateUTC
12:15 AM,37.4,19.4,48,29.93,10.0,SE,13.8,-,N/A,,Clear,130,2013-03-21 05:15:00
12:35 AM,37.4,19.4,48,29.92,10.0,SE,13.8,-,N/A,,Clear,130,2013-03-21 05:35:00
1:15 AM,37.4,19.4,48,29.90,10.0,ESE,15.0,18.4,N/A,,Clear,120,2013-03-21 06:15:00
1:35 AM,37.4,19.4,48,29.88,10.0,ESE,17.3,-,N/A,,Clear,120,2013-03-21 06:35:00
1:55 AM,35.6,19.4,52,29.88,10.0,SE,15.0,21.9,N/A,,Clear,130,2013-03-21 06:55:00
2:15 AM,35.6,19.4,52,29.88,10.0,ESE,15.0,-,N/A,,Clear,120,2013-03-21 07:15:00
2:35 AM,35.6,17.6,48,29.88,10.0,ESE,15.0,-,N/A,,Clear,120,2013-03-21 07:35:00
2:55 AM,35.6,17.6,48,29.87,10.0,ESE,16.1,-,N/A,,Clear,120,2013-03-21 07:55:00
3:15 AM,33.8,17.6,52,29.86,10.0,ESE,16.1,-,N/A,,Clear,120,2013-03-21 08:15:00
3:35 AM,35.6,17.6,48,29.85,10.0,ESE,17.3,21.9,N/A,,Clear,120,2013-03-21 08:35:00
3:55 AM,33.8,17.6,52,29.84,10.0,ESE,17.3,23.0,N/A,,Clear,120,2013-03-21 08:55:00
4:15 AM,33.8,17.6,52,29.83,10.0,ESE,16.1,20.7,N/A,,Clear,110,2013-03-21 09:15:00
4:35 AM,33.8,17.6,52,29.82,10.0,ESE,17.3,24.2,N/A,,Clear,120,2013-03-21 09:35:00
4:55 AM,33.8,17.6,52,29.80,10.0,ESE,18.4,23.0,N/A,,Clear,120,2013-03-21 09:55:00
5:15 AM,33.8,17.6,52,29.80,10.0,ESE,17.3,25.3,N/A,,Clear,120,2013-03-21 10:15:00
5:35 AM,33.8,17.6,52,29.79,10.0,ESE,20.7,27.6,N/A,,Clear,120,2013-03-21 10:35:00
5:55 AM,33.8,17.6,52,29.78,10.0,ESE,21.9,31.1,N/A,,Clear,120,2013-03-21 10:55:00
6:15 AM,33.8,17.6,52,29.78,10.0,SE,19.6,25.3,N/A,,Clear,130,2013-03-21 11:15:00
6:35 AM,33.8,17.6,52,29.78,10.0,SE,19.6,26.5,N/A,,Clear,130,2013-03-21 11:35:00
6:55 AM,33.8,17.6,52,29.79,10.0,ESE,15.0,27.6,N/A,,Clear,120,2013-03-21 11:55:00
7:15 AM,33.8,17.6,52,29.79,10.0,ESE,16.1,-,N/A,,Clear,120,2013-03-21 12:15:00
7:55 AM,33.8,17.6,52,29.79,10.0,ESE,13.8,-,N/A,,Clear,120,2013-03-21 12:55:00
8:15 AM,33.8,17.6,52,29.80,10.0,ESE,12.7,-,N/A,,Clear,110,2013-03-21 13:15:00
8:35 AM,33.8,17.6,52,29.79,10.0,ESE,12.7,20.7,N/A,,Clear,110,2013-03-21 13:35:00
8:55 AM,33.8,17.6,52,29.78,10.0,ESE,20.7,-,N/A,,Clear,120,2013-03-21 13:55:00
9:15 AM,35.6,17.6,48,29.78,10.0,ESE,21.9,29.9,N/A,,Clear,120,2013-03-21 14:15:00
9:35 AM,35.6,17.6,48,29.77,10.0,SE,20.7,28.8,N/A,,Clear,130,2013-03-21 14:35:00
9:55 AM,37.4,17.6,45,29.77,10.0,SE,23.0,29.9,N/A,,Clear,130,2013-03-21 14:55:00
10:15 AM,39.2,19.4,45,29.75,10.0,SE,20.7,29.9,N/A,,Clear,130,2013-03-21 15:15:00
10:35 AM,41.0,19.4,42,29.75,10.0,ESE,25.3,31.1,N/A,,Clear,120,2013-03-21 15:35:00
10:55 AM,42.8,21.2,42,29.74,10.0,SE,23.0,28.8,N/A,,Clear,130,2013-03-21 15:55:00
11:35 AM,46.4,24.8,43,29.73,10.0,SE,25.3,34.5,N/A,,Clear,130,2013-03-21 16:35:00
11:55 AM,46.4,24.8,43,29.73,10.0,SSE,20.7,29.9,N/A,,Clear,150,2013-03-21 16:55:00
12:15 PM,48.2,24.8,40,29.72,10.0,SE,23.0,31.1,N/A,,Clear,130,2013-03-21 17:15:00
12:35 PM,48.2,24.8,40,29.70,10.0,SE,26.5,32.2,N/A,,Clear,130,2013-03-21 17:35:00
12:55 PM,48.2,24.8,40,29.70,10.0,SE,20.7,29.9,N/A,,Clear,130,2013-03-21 17:55:00
1:15 PM,50.0,24.8,37,29.69,10.0,SE,20.7,29.9,N/A,,Clear,130,2013-03-21 18:15:00
1:35 PM,51.8,26.6,38,29.68,10.0,SE,19.6,28.8,N/A,,Clear,140,2013-03-21 18:35:00
1:55 PM,51.8,26.6,38,29.68,10.0,SE,21.9,28.8,N/A,,Clear,140,2013-03-21 18:55:00
2:15 PM,53.6,28.4,38,29.67,10.0,SE,20.7,27.6,N/A,,Clear,130,2013-03-21 19:15:00
2:35 PM,53.6,26.6,35,29.67,10.0,SE,18.4,26.5,N/A,,Clear,140,2013-03-21 19:35:00
2:55 PM,53.6,28.4,38,29.66,10.0,SSE,17.3,24.2,N/A,,Clear,150,2013-03-21 19:55:00
3:15 PM,53.6,28.4,38,29.65,10.0,ESE,17.3,24.2,N/A,,Clear,120,2013-03-21 20:15:00
3:35 PM,53.6,28.4,38,29.64,10.0,ESE,15.0,24.2,N/A,,Clear,110,2013-03-21 20:35:00
3:55 PM,53.6,28.4,38,29.63,10.0,ESE,18.4,26.5,N/A,,Clear,120,2013-03-21 20:55:00
4:15 PM,53.6,28.4,38,29.64,10.0,ESE,12.7,27.6,N/A,,Clear,120,2013-03-21 21:15:00
4:35 PM,53.6,28.4,38,29.64,10.0,SE,19.6,25.3,N/A,,Clear,130,2013-03-21 21:35:00
4:55 PM,51.8,28.4,41,29.65,10.0,ESE,19.6,-,N/A,,Clear,110,2013-03-21 21:55:00
5:15 PM,51.8,26.6,38,29.66,10.0,ESE,16.1,-,N/A,,Clear,120,2013-03-21 22:15:00
5:35 PM,50.0,26.6,40,29.66,10.0,SE,18.4,-,N/A,,Clear,130,2013-03-21 22:35:00
5:55 PM,48.2,26.6,43,29.67,10.0,ESE,15.0,-,N/A,,Clear,120,2013-03-21 22:55:00
6:15 PM,48.2,26.6,43,29.68,10.0,SE,15.0,21.9,N/A,,Clear,130,2013-03-21 23:15:00
6:35 PM,46.4,26.6,46,29.69,10.0,SE,17.3,-,N/A,,Clear,130,2013-03-21 23:35:00
6:55 PM,46.4,26.6,46,29.70,10.0,ESE,17.3,-,N/A,,Clear,120,2013-03-21 23:55:00
7:15 PM,46.4,24.8,43,29.70,10.0,ESE,15.0,-,N/A,,Clear,110,2013-03-22 00:15:00
7:35 PM,44.6,24.8,46,29.71,10.0,ESE,13.8,19.6,N/A,,Clear,120,2013-03-22 00:35:00
7:55 PM,42.8,24.8,49,29.71,10.0,ESE,16.1,-,N/A,,Clear,120,2013-03-22 00:55:00
8:15 PM,42.8,23.0,46,29.71,10.0,ESE,13.8,-,N/A,,Clear,110,2013-03-22 01:15:00
8:35 PM,39.2,21.2,49,29.72,10.0,East,21.9,26.5,N/A,,Clear,90,2013-03-22 01:35:00
8:55 PM,37.4,19.4,48,29.74,10.0,ESE,17.3,25.3,N/A,,Clear,110,2013-03-22 01:55:00
9:15 PM,37.4,19.4,48,29.77,10.0,ESE,16.1,-,N/A,,Mostly Cloudy,110,2013-03-22 02:15:00
9:35 PM,35.6,21.2,56,29.76,10.0,East,18.4,23.0,N/A,,Overcast,100,2013-03-22 02:35:00
9:55 PM,35.6,21.2,56,29.77,10.0,East,18.4,25.3,N/A,,Overcast,100,2013-03-22 02:55:00
10:15 PM,35.6,23.0,60,29.78,10.0,East,18.4,-,N/A,,Overcast,90,2013-03-22 03:15:00
10:35 PM,33.8,23.0,65,29.79,10.0,East,16.1,20.7,N/A,,Overcast,100,2013-03-22 03:35:00
10:55 PM,33.8,24.8,70,29.80,10.0,East,15.0,20.7,N/A,,Mostly Cloudy,100,2013-03-22 03:55:00
11:15 PM,33.8,24.8,70,29.83,10.0,East,13.8,-,N/A,,Mostly Cloudy,100,2013-03-22 04:15:00
11:35 PM,33.8,24.8,70,29.84,10.0,East,11.5,-,N/A,,Overcast,90,2013-03-22 04:35:00
11:55 PM,33.8,24.8,70,29.85,10.0,East,15.0,-,N/A,,Overcast,90,2013-03-22 04:55:00